Time;durP1;ratioP1;P1;durP2;ratioP2;P2;SDS_P1;SDS_P2;PMS_P1;PMS_P2;Temp;Humidity;BMP_temperature;BMP_pressure;BME280_temperature;BME280_humidity;BME280_pressure;Samples;Min_cycle;Max_cycle;Signal;HPM_P1;HPM_P2
2022/07/17 04:22:43;;;;;;;9.20;6.00;;;;;;;13.89;81.14;101087.47;5089363;28;20362;-65
2022/07/17 04:25:09;;;;;;;11.75;6.22;;;;;;;13.90;80.54;101075.78;5089285;28;20037;-66
2022/07/17 04:27:34;;;;;;;7.40;5.75;;;;;;;13.97;80.26;101079.44;5089022;28;20048;-66
2022/07/17 04:30:00;;;;;;;14.00;6.03;;;;;;;13.99;80.17;101080.06;5088666;28;20079;-66
2022/07/17 04:32:25;;;;;;;8.13;6.18;;;;;;;14.02;80.05;101090.47;5089061;28;20032;-66
2022/07/17 04:34:50;;;;;;;9.90;5.75;;;;;;;14.04;79.92;101091.94;5089493;28;20048;-66
2022/07/17 04:37:16;;;;;;;8.65;5.60;;;;;;;14.04;79.57;101083.06;5088865;28;20063;-66
2022/07/17 04:39:41;;;;;;;8.50;6.13;;;;;;;14.09;79.07;101084.22;5087548;28;20374;-66
2022/07/17 04:42:07;;;;;;;7.22;5.47;;;;;;;14.12;79.14;101083.03;5088882;28;20615;-66
2022/07/17 04:44:32;;;;;;;7.47;5.78;;;;;;;14.15;78.86;101079.13;5088743;28;20040;-66
2022/07/17 04:46:58;;;;;;;6.15;5.35;;;;;;;14.16;78.56;101087.03;5088770;28;20469;-66
2022/07/17 04:49:24;;;;;;;9.15;5.90;;;;;;;14.23;78.06;101082.63;5088502;28;20068;-66
2022/07/17 04:51:49;;;;;;;7.15;5.90;;;;;;;14.28;77.74;101090.97;5088779;28;20425;-66
2022/07/17 04:54:15;;;;;;;7.03;5.45;;;;;;;14.22;77.72;101091.69;5088767;28;20042;-66
2022/07/17 04:56:40;;;;;;;8.63;5.75;;;;;;;14.28;77.84;101092.78;5088563;28;20032;-66
2022/07/17 04:59:06;;;;;;;6.93;5.97;;;;;;;14.33;77.78;101101.97;5088264;28;20086;-66
2022/07/17 05:01:31;;;;;;;9.43;6.65;;;;;;;14.36;77.37;101098.97;5088473;28;20127;-66
2022/07/17 05:03:56;;;;;;;7.10;5.95;;;;;;;14.40;77.11;101100.25;5088708;28;20032;-66
2022/07/17 05:06:22;;;;;;;8.55;5.65;;;;;;;14.40;76.89;101094.91;5088367;28;20040;-66
2022/07/17 05:08:47;;;;;;;8.27;5.40;;;;;;;14.48;76.51;101099.41;5088129;28;20035;-66
2022/07/17 05:11:13;;;;;;;10.40;5.57;;;;;;;14.55;76.07;101100.38;5088479;28;20477;-66
2022/07/17 05:13:38;;;;;;;6.47;5.20;;;;;;;14.56;74.91;101107.41;5088312;28;20033;-66
2022/07/17 05:16:04;;;;;;;9.90;5.15;;;;;;;14.68;74.90;101104.31;5086872;28;20530;-66
2022/07/17 05:18:29;;;;;;;10.38;4.75;;;;;;;14.72;74.49;101109.13;5088319;28;20070;-66
2022/07/17 05:20:55;;;;;;;7.57;4.88;;;;;;;14.78;73.20;101099.53;5087692;28;20039;-66
2022/07/17 05:23:20;;;;;;;5.88;4.50;;;;;;;14.88;73.67;101095.59;5088295;28;20409;-66
2022/07/17 05:25:46;;;;;;;5.72;4.18;;;;;;;14.90;72.47;101103.44;5088036;28;20037;-66
2022/07/17 05:28:11;;;;;;;7.00;4.72;;;;;;;15.00;71.58;101111.25;5087915;28;20102;-66
2022/07/17 05:30:37;;;;;;;7.43;4.82;;;;;;;15.07;71.29;101113.03;5087760;28;20050;-66
2022/07/17 05:33:02;;;;;;;6.00;4.53;;;;;;;15.13;70.27;101114.16;5079132;28;20043;-66
2022/07/17 05:35:28;;;;;;;7.72;4.47;;;;;;;15.18;69.54;101112.56;5074343;28;20101;-66
2022/07/17 05:37:53;;;;;;;5.50;4.40;;;;;;;15.25;69.31;101112.69;5074318;28;20033;-66
2022/07/17 05:40:18;;;;;;;3.92;3.42;;;;;;;15.32;68.02;101115.47;5073924;28;20126;-66
2022/07/17 05:42:44;;;;;;;6.00;4.00;;;;;;;15.37;68.04;101116.59;5074261;28;20075;-66
2022/07/17 05:45:10;;;;;;;4.95;3.60;;;;;;;15.44;67.05;101106.78;5074233;28;20068;-66
2022/07/17 05:47:35;;;;;;;7.88;5.07;;;;;;;15.53;66.90;101114.75;5056520;28;20036;-66
2022/07/17 05:50:00;;;;;;;4.45;3.20;;;;;;;15.62;65.75;101116.34;5074035;28;20040;-66
2022/07/17 05:52:26;;;;;;;4.82;3.63;;;;;;;15.69;65.03;101114.59;5074102;28;20127;-66
2022/07/17 05:54:52;;;;;;;3.65;3.20;;;;;;;15.80;64.21;101114.13;5074024;28;20119;-66
2022/07/17 05:57:17;;;;;;;5.20;3.38;;;;;;;15.85;65.07;101113.59;5055913;28;20511;-66
2022/07/17 05:59:43;;;;;;;5.55;3.05;;;;;;;15.91;63.78;101118.19;5074019;28;20426;-66
2022/07/17 06:02:08;;;;;;;4.57;3.35;;;;;;;15.97;64.32;101117.44;5073916;28;20052;-66
2022/07/17 06:04:34;;;;;;;6.03;3.17;;;;;;;16.06;63.72;101118.19;5073935;28;20041;-66
2022/07/17 06:06:59;;;;;;;4.95;3.38;;;;;;;16.10;63.06;101116.78;5073737;28;20083;-66
2022/07/17 06:09:25;;;;;;;9.73;3.00;;;;;;;16.18;63.64;101122.06;5073541;28;20067;-66
2022/07/17 06:11:50;;;;;;;4.75;3.30;;;;;;;16.26;62.99;101121.94;5073866;28;20486;-66
2022/07/17 06:14:16;;;;;;;5.45;3.53;;;;;;;16.32;62.52;101126.56;5073629;28;20060;-66
2022/07/17 06:16:41;;;;;;;5.43;3.08;;;;;;;16.39;62.10;101123.94;5073699;28;20036;-66
2022/07/17 06:19:07;;;;;;;5.53;3.17;;;;;;;16.45;61.96;101118.63;5073318;28;20059;-66
2022/07/17 06:21:32;;;;;;;3.88;3.17;;;;;;;16.54;61.92;101128.25;5073385;28;20040;-66
2022/07/17 06:23:58;;;;;;;4.78;3.20;;;;;;;16.58;61.04;101119.81;5073543;28;20074;-66
2022/07/17 06:26:23;;;;;;;4.40;2.97;;;;;;;16.68;61.87;101129.22;5073390;28;20040;-66
2022/07/17 06:28:49;;;;;;;4.38;3.10;;;;;;;16.74;62.03;101135.72;5071819;28;20036;-66
2022/07/17 06:31:14;;;;;;;4.18;2.70;;;;;;;16.82;61.47;101124.81;5073420;28;20033;-66
2022/07/17 06:33:40;;;;;;;3.72;2.78;;;;;;;16.93;60.13;101123.47;5073416;28;20503;-66
2022/07/17 06:36:05;;;;;;;7.80;3.15;;;;;;;17.01;59.90;101131.41;5073237;28;20040;-66
2022/07/17 06:38:33;;;;;;;3.35;2.78;;;;;;;17.06;59.49;101135.19;5073157;28;20405;-66
2022/07/17 06:40:58;;;;;;;;;;;;;;;17.12;59.41;101135.44;5072314;28;20041;-66
2022/07/17 06:43:24;;;;;;;9.63;2.83;;;;;;;17.24;58.92;101136.56;5073024;28;19916;-66
2022/07/17 06:45:51;;;;;;;3.72;2.85;;;;;;;17.29;58.71;101134.97;5072361;28;20037;-66
2022/07/17 06:48:17;;;;;;;4.22;3.10;;;;;;;17.38;58.97;101140.19;5073000;28;20472;-66
2022/07/17 06:50:43;;;;;;;4.93;3.05;;;;;;;17.43;58.74;101135.88;5072657;28;20378;-63
2022/07/17 06:53:08;;;;;;;6.30;3.10;;;;;;;17.56;58.48;101141.38;5072715;28;20106;-52
2022/07/17 06:55:34;;;;;;;7.28;3.72;;;;;;;17.69;57.93;101135.22;5072882;28;20101;-60
2022/07/17 06:57:59;;;;;;;5.53;2.53;;;;;;;17.76;57.03;101135.28;5072619;28;20040;-55
2022/07/17 07:00:24;;;;;;;6.30;2.90;;;;;;;17.84;56.50;101144.03;5072342;28;20079;-58
2022/07/17 07:02:50;;;;;;;4.57;2.50;;;;;;;17.88;55.47;101139.09;5072646;28;20098;-59
2022/07/17 07:05:15;;;;;;;6.30;2.22;;;;;;;17.94;56.53;101149.09;5072500;28;20048;-60
2022/07/17 07:07:41;;;;;;;3.80;2.53;;;;;;;18.08;56.93;101149.97;5072580;28;20040;-60
2022/07/17 07:10:07;;;;;;;3.65;2.20;;;;;;;18.20;56.05;101148.38;5072353;28;20040;-52
2022/07/17 07:12:32;;;;;;;3.92;2.47;;;;;;;18.27;55.25;101135.75;5072283;28;20490;-61
2022/07/17 07:14:58;;;;;;;3.72;2.40;;;;;;;18.39;55.25;101141.38;5072514;28;20052;-54
2022/07/17 07:17:23;;;;;;;4.20;3.00;;;;;;;18.52;55.47;101144.13;5072386;28;20033;-58
2022/07/17 07:19:48;;;;;;;8.23;4.25;;;;;;;18.65;53.84;101146.03;5072038;28;20509;-52
2022/07/17 07:22:14;;;;;;;5.60;2.55;;;;;;;18.70;53.09;101143.53;5070058;28;20413;-52
2022/07/17 07:24:40;;;;;;;4.32;2.80;;;;;;;18.77;52.76;101133.59;5065060;28;20055;-58
2022/07/17 07:27:05;;;;;;;4.18;2.67;;;;;;;18.86;53.61;101143.16;5071693;28;20039;-60
2022/07/17 07:29:31;;;;;;;8.65;3.85;;;;;;;18.94;52.00;101134.03;5071171;28;20028;-56
2022/07/17 07:31:56;;;;;;;3.40;2.75;;;;;;;19.01;52.05;101136.75;5071885;28;20495;-57
2022/07/17 07:34:22;;;;;;;7.07;3.63;;;;;;;19.12;51.63;101136.97;5071824;28;20025;-56
2022/07/17 07:36:47;;;;;;;6.65;2.78;;;;;;;19.19;51.48;101134.25;5071878;28;20085;-58
2022/07/17 07:39:13;;;;;;;3.22;2.05;;;;;;;19.30;51.96;101135.47;5070889;28;20044;-59
2022/07/17 07:41:38;;;;;;;3.47;2.10;;;;;;;19.31;50.81;101129.88;5071538;28;20043;-58
2022/07/17 07:44:04;;;;;;;7.05;2.22;;;;;;;19.44;51.48;101131.75;5071433;28;20033;-59
2022/07/17 07:46:29;;;;;;;5.13;2.47;;;;;;;19.58;50.43;101135.28;5071731;28;20111;-54
2022/07/17 07:48:55;;;;;;;4.80;2.60;;;;;;;19.68;50.57;101124.84;5070805;28;20045;-58
2022/07/17 07:51:20;;;;;;;4.15;1.85;;;;;;;19.71;49.72;101127.97;5071359;28;20033;-58
2022/07/17 07:53:45;;;;;;;6.57;1.98;;;;;;;19.83;50.11;101133.56;5060324;28;20082;-60
2022/07/17 07:56:12;;;;;;;3.65;2.95;;;;;;;19.93;49.61;101133.09;5051143;28;20047;-57
2022/07/17 07:58:37;;;;;;;3.97;2.38;;;;;;;20.09;49.54;101137.22;5050835;28;20124;-60
2022/07/17 08:01:03;;;;;;;4.65;2.03;;;;;;;20.14;48.92;101130.09;5051175;28;20033;-59
2022/07/17 08:03:28;;;;;;;2.88;1.65;;;;;;;20.26;49.28;101133.78;5051417;28;20041;-58
2022/07/17 08:05:54;;;;;;;2.25;1.85;;;;;;;20.40;49.08;101139.13;5051460;28;20041;-57
2022/07/17 08:08:19;;;;;;;2.67;2.00;;;;;;;20.47;48.94;101132.66;5051152;28;20045;-57
2022/07/17 08:10:45;;;;;;;5.90;2.70;;;;;;;20.54;47.95;101138.88;5050386;28;20118;-60
2022/07/17 08:13:10;;;;;;;4.93;1.90;;;;;;;20.58;47.94;101139.25;5050317;28;20405;-60
2022/07/17 08:15:36;;;;;;;2.95;1.65;;;;;;;20.58;47.56;101128.44;5051487;28;20128;-60
2022/07/17 08:18:02;;;;;;;2.95;2.00;;;;;;;20.79;47.59;101130.78;5051562;28;20067;-60
2022/07/17 08:20:27;;;;;;;3.08;1.70;;;;;;;20.88;47.54;101130.53;5050962;28;20080;-60
2022/07/17 08:22:53;;;;;;;4.82;2.40;;;;;;;21.08;47.45;101140.16;5051692;28;20134;-58
2022/07/17 08:25:19;;;;;;;5.55;2.20;;;;;;;21.21;46.87;101131.09;5051259;28;20037;-59
2022/07/17 08:27:44;;;;;;;3.08;1.90;;;;;;;21.13;46.50;101126.78;5051451;28;20037;-58
2022/07/17 08:30:12;;;;;;;3.70;1.88;;;;;;;21.32;45.84;101130.41;5051226;28;20143;-60
2022/07/17 08:32:38;;;;;;;3.15;1.73;;;;;;;21.51;46.71;101125.00;5051372;28;20033;-60
2022/07/17 08:35:04;;;;;;;3.75;2.00;;;;;;;21.70;45.90;101133.97;5051304;28;20090;-61
2022/07/17 08:37:30;;;;;;;5.38;2.05;;;;;;;21.77;45.13;101132.84;5051213;28;20083;-58
2022/07/17 08:39:56;;;;;;;5.05;1.83;;;;;;;21.83;44.70;101134.66;5050961;28;20473;-60
2022/07/17 08:42:22;;;;;;;5.72;2.10;;;;;;;21.95;45.33;101135.56;5051289;28;20075;-59
2022/07/17 08:44:48;;;;;;;2.90;2.45;;;;;;;22.10;45.85;101128.94;5051344;28;20033;-58
2022/07/17 08:47:15;;;;;;;2.38;2.00;;;;;;;22.26;43.79;101130.22;5051175;28;20488;-59
2022/07/17 08:49:48;;;;;;;3.65;2.60;;;;;;;22.37;43.83;101122.13;5051080;28;20086;-59
2022/07/17 08:52:14;;;;;;;3.42;1.90;;;;;;;22.61;44.39;101130.34;5051250;28;20035;-61
2022/07/17 08:54:41;;;;;;;3.40;1.90;;;;;;;22.87;42.95;101134.56;5051182;28;20481;-60
2022/07/17 08:57:06;;;;;;;3.78;1.70;;;;;;;22.92;42.87;101135.53;5051173;28;20115;-57
2022/07/17 08:59:32;;;;;;;4.32;2.03;;;;;;;23.10;42.45;101131.09;5050797;28;20447;-59
2022/07/17 09:02:03;;;;;;;3.10;1.92;;;;;;;23.22;43.05;101134.66;5050990;28;20554;-60
2022/07/17 09:04:28;;;;;;;2.75;1.75;;;;;;;23.29;41.26;101127.19;5051103;28;20444;-57
2022/07/17 09:07:02;;;;;;;2.65;1.63;;;;;;;23.50;42.68;101123.88;5050900;28;20041;-60
2022/07/17 09:09:28;;;;;;;4.78;1.77;;;;;;;23.51;39.98;101130.97;5054260;28;20124;-60
2022/07/17 09:11:55;;;;;;;2.65;1.50;;;;;;;23.59;40.68;101132.50;5054739;28;20120;-60
2022/07/17 09:14:21;;;;;;;3.30;1.70;;;;;;;23.85;40.61;101136.63;5054568;28;20146;-59
2022/07/17 09:16:55;;;;;;;3.10;1.90;;;;;;;23.98;41.51;101122.75;5053065;28;20036;-56
2022/07/17 09:19:25;;;;;;;2.88;1.52;;;;;;;24.17;40.87;101128.03;5054974;28;20048;-60
2022/07/17 09:21:51;;;;;;;2.40;2.00;;;;;;;24.26;38.59;101126.59;5053148;28;20036;-60
2022/07/17 09:24:16;;;;;;;4.65;1.77;;;;;;;24.55;38.60;101127.44;5054576;28;20029;-50
2022/07/17 09:26:44;;;;;;;1.92;1.75;;;;;;;24.75;38.29;101124.25;5054482;28;20122;-52
2022/07/17 09:29:11;;;;;;;7.20;1.80;;;;;;;24.77;38.64;101128.34;5054321;28;20044;-49
2022/07/17 09:31:37;;;;;;;1.95;1.60;;;;;;;24.81;37.33;101123.25;5054628;28;20031;-56
2022/07/17 09:34:02;;;;;;;2.58;1.48;;;;;;;25.11;38.54;101123.81;5054322;28;20441;-56
2022/07/17 09:36:28;;;;;;;2.80;1.70;;;;;;;25.40;37.14;101120.94;5054349;28;20083;-63
2022/07/17 09:38:56;;;;;;;1.65;1.38;;;;;;;25.51;37.13;101113.75;5053984;28;20406;-63
2022/07/17 09:41:23;;;;;;;3.28;1.60;;;;;;;25.86;37.44;101111.50;5054233;28;20048;-62
2022/07/17 09:44:01;;;;;;;5.70;1.80;;;;;;;25.92;36.61;101112.41;5054225;28;20170;-63
2022/07/17 09:46:31;;;;;;;3.28;1.90;;;;;;;26.07;33.62;101109.03;5053875;28;20033;-58
2022/07/17 09:49:01;;;;;;;6.50;1.65;;;;;;;26.19;33.66;101116.00;5053791;28;20119;-64
2022/07/17 09:51:30;;;;;;;2.63;1.98;;;;;;;26.18;34.09;101100.72;5054148;28;20036;-64
2022/07/17 09:53:59;;;;;;;3.00;1.67;;;;;;;26.52;35.19;101100.53;5053961;28;20033;-65
2022/07/17 09:56:26;;;;;;;2.28;1.55;;;;;;;26.89;34.55;101105.25;5053946;28;20029;-65
2022/07/17 09:59:01;;;;;;;2.35;1.52;;;;;;;26.54;33.55;101101.13;5053640;28;20037;-65
2022/07/17 10:01:26;;;;;;;3.90;1.60;;;;;;;26.86;33.58;101095.63;5052659;28;20041;-49
2022/07/17 10:03:53;;;;;;;3.53;1.60;;;;;;;27.01;32.43;101090.31;5053910;28;20414;-52
2022/07/17 10:06:20;;;;;;;2.15;1.50;;;;;;;27.22;32.59;101088.56;5053917;28;20460;-65
2022/07/17 10:08:46;;;;;;;2.63;2.00;;;;;;;27.33;32.08;101099.56;5053428;28;20045;-64
2022/07/17 10:11:15;;;;;;;2.42;1.50;;;;;;;27.43;32.87;101085.94;5053817;28;20044;-63
2022/07/17 10:13:43;;;;;;;4.80;1.67;;;;;;;27.65;32.27;101083.88;5053618;28;20490;-64
2022/07/17 10:16:09;;;;;;;3.25;1.50;;;;;;;27.63;30.96;101088.78;5053632;28;20069;-64
2022/07/17 10:18:42;;;;;;;2.20;1.43;;;;;;;27.99;30.35;101084.31;5053419;28;20052;-64
2022/07/17 10:21:12;;;;;;;2.47;1.50;;;;;;;28.15;29.54;101079.69;5053395;28;20099;-64
2022/07/17 10:23:38;;;;;;;1.70;1.17;;;;;;;28.62;30.78;101084.16;5053585;28;20478;-62
2022/07/17 10:26:03;;;;;;;2.20;1.30;;;;;;;28.84;25.61;101076.50;5053309;28;20112;-61
2022/07/17 10:28:43;;;;;;;2.53;1.20;;;;;;;29.05;26.58;101069.13;5053360;28;20452;-62
2022/07/17 10:31:10;;;;;;;1.65;1.30;;;;;;;29.57;28.16;101067.91;5052030;28;20098;-62
2022/07/17 10:33:36;;;;;;;2.63;1.40;;;;;;;29.53;26.45;101057.75;5078754;22;20489;-54
2022/07/17 10:36:02;;;;;;;1.80;1.20;;;;;;;29.69;27.27;101062.94;5092881;28;20514;-53
2022/07/17 10:38:28;;;;;;;1.33;1.23;;;;;;;29.76;26.43;101064.56;5093622;28;20036;-60
2022/07/17 10:41:01;;;;;;;2.50;1.20;;;;;;;29.87;25.61;101066.16;5093263;28;20043;-58
2022/07/17 10:43:27;;;;;;;2.28;1.30;;;;;;;30.39;24.83;101060.09;5093244;28;20395;-59
2022/07/17 10:45:53;;;;;;;1.13;0.93;;;;;;;30.58;25.20;101064.88;5075036;28;20036;-58
2022/07/17 10:48:21;;;;;;;2.08;1.15;;;;;;;30.58;25.13;101062.94;5092941;28;20446;-60
2022/07/17 10:50:54;;;;;;;2.60;1.05;;;;;;;30.65;22.37;101070.88;5092623;28;20051;-59
2022/07/17 10:53:29;;;;;;;2.33;1.00;;;;;;;30.69;22.54;101072.78;5092742;28;20405;-58
2022/07/17 10:56:05;;;;;;;2.60;1.17;;;;;;;30.85;24.09;101075.41;5092613;28;20046;-59
2022/07/17 10:58:33;;;;;;;1.70;1.30;;;;;;;30.36;24.26;101057.06;5092634;28;20120;-59
2022/07/17 11:01:03;;;;;;;1.83;1.30;;;;;;;30.54;24.73;101067.38;5092453;28;20100;-59
2022/07/17 11:03:30;;;;;;;1.25;1.13;;;;;;;30.87;24.04;101068.50;5092870;28;20123;-59
2022/07/17 11:06:16;;;;;;;2.92;1.45;;;;;;;31.06;25.59;101065.84;5092583;28;20040;-60
2022/07/17 11:08:48;;;;;;;1.30;1.20;;;;;;;31.63;23.28;101063.34;5092432;28;20464;-58
2022/07/17 11:11:14;;;;;;;2.00;1.38;;;;;;;31.30;23.00;101068.66;5092277;28;20389;-60
2022/07/17 11:13:40;;;;;;;1.42;1.25;;;;;;;31.90;23.41;101066.31;5092471;28;20085;-58
2022/07/17 11:16:05;;;;;;;1.42;1.10;;;;;;;31.53;24.21;101054.06;5074472;28;20069;-59
2022/07/17 11:18:31;;;;;;;1.40;1.20;;;;;;;32.08;23.08;101050.88;5093489;28;20146;-58
2022/07/17 11:20:58;;;;;;;2.17;1.10;;;;;;;32.61;23.02;101056.16;5073994;28;20138;-59
2022/07/17 11:23:26;;;;;;;2.03;1.33;;;;;;;31.94;21.85;101049.97;5092257;28;20107;-61
2022/07/17 11:26:13;;;;;;;1.85;1.25;;;;;;;32.94;21.62;101049.53;5091904;28;20504;-60
2022/07/17 11:28:49;;;;;;;3.00;0.98;;;;;;;33.09;19.98;101062.22;5091868;28;20111;-59
2022/07/17 11:31:22;;;;;;;1.57;1.30;;;;;;;32.72;21.26;101057.59;5091588;28;20077;-60
2022/07/17 11:33:56;;;;;;;1.10;1.00;;;;;;;32.86;19.58;101052.97;5091737;28;20480;-60
2022/07/17 11:36:23;;;;;;;1.75;1.00;;;;;;;32.61;21.30;101051.47;5073467;28;20135;-59
2022/07/17 11:38:49;;;;;;;1.45;0.90;;;;;;;33.10;20.43;101050.06;5091702;28;20047;-60
2022/07/17 11:41:17;;;;;;;1.43;1.20;;;;;;;33.26;20.20;101050.59;5092007;28;20337;-61
2022/07/17 11:43:43;;;;;;;1.95;1.20;;;;;;;32.91;22.51;101043.78;5091742;28;20040;-58
2022/07/17 11:46:08;;;;;;;2.30;1.10;;;;;;;33.71;20.09;101046.09;5063573;28;20036;-60
2022/07/17 11:48:34;;;;;;;1.33;1.10;;;;;;;33.66;20.46;101045.41;5090059;28;20067;-61
2022/07/17 11:51:00;;;;;;;2.17;1.07;;;;;;;33.63;19.63;101037.72;5091478;28;20081;-59
2022/07/17 11:53:36;;;;;;;2.23;1.00;;;;;;;34.11;20.34;101046.34;5091749;28;20043;-61
2022/07/17 11:56:03;;;;;;;1.23;1.10;;;;;;;34.05;19.67;101036.53;5091706;28;20052;-61
2022/07/17 11:58:39;;;;;;;;;;;;;;;34.26;19.62;101045.97;5074002;28;20040;-61
2022/07/17 12:01:05;;;;;;;1.65;1.15;;;;;;;34.26;19.78;101037.69;5091394;28;19912;-60
2022/07/17 12:03:31;;;;;;;2.50;1.27;;;;;;;34.32;20.15;101032.03;5073408;28;20035;-57
2022/07/17 12:05:56;;;;;;;1.37;0.93;;;;;;;34.21;18.42;101040.56;5073971;28;20036;-59
2022/07/17 12:08:22;;;;;;;1.90;1.00;;;;;;;34.19;19.32;101036.47;5073738;28;20032;-59
2022/07/17 12:10:47;;;;;;;1.30;0.93;;;;;;;34.60;18.27;101039.06;5091082;28;20040;-57
2022/07/17 12:13:14;;;;;;;1.50;1.20;;;;;;;34.46;18.19;101043.88;5091807;28;20039;-60
2022/07/17 12:15:45;;;;;;;2.53;1.08;;;;;;;34.59;19.48;101042.16;5091067;28;20122;-60
2022/07/17 12:18:24;;;;;;;2.33;1.20;;;;;;;34.95;19.76;101044.84;5073936;28;20039;-57
2022/07/17 12:20:51;;;;;;;1.52;1.08;;;;;;;34.79;19.53;101047.97;5072457;28;20093;-61
2022/07/17 12:23:37;;;;;;;3.83;1.20;;;;;;;33.90;18.78;101043.16;5082580;28;20493;-59
2022/07/17 12:26:03;;;;;;;2.38;1.23;;;;;;;35.15;18.65;101041.53;5064734;28;20044;-60
2022/07/17 12:28:30;;;;;;;1.70;0.88;;;;;;;34.32;18.23;101041.13;5082094;28;20075;-56
2022/07/17 12:30:58;;;;;;;1.40;0.90;;;;;;;34.97;18.18;101034.28;5062114;28;20499;-57
2022/07/17 12:33:24;;;;;;;2.25;1.02;;;;;;;34.81;18.24;101039.34;5055908;28;20143;-56
2022/07/17 12:35:49;;;;;;;1.90;1.10;;;;;;;35.50;17.50;101038.91;5068790;28;20718;-54
2022/07/17 12:38:15;;;;;;;1.30;1.10;;;;;;;35.33;16.94;101034.91;5073219;28;20040;-52
2022/07/17 12:40:41;;;;;;;2.17;0.97;;;;;;;35.38;16.80;101027.59;5083623;28;20052;-55
2022/07/17 12:43:08;;;;;;;1.15;1.05;;;;;;;35.74;17.75;101027.38;5081722;28;20424;-56
2022/07/17 12:45:33;;;;;;;1.40;0.85;;;;;;;35.08;17.49;101032.84;5085822;28;20108;-52
2022/07/17 12:47:59;;;;;;;1.87;1.20;;;;;;;35.54;18.15;101023.28;5085514;28;20036;-57
2022/07/17 12:50:24;;;;;;;3.17;1.07;;;;;;;35.74;17.45;101022.66;5082952;28;20067;-53
2022/07/17 12:52:50;;;;;;;1.30;1.17;;;;;;;35.48;16.24;101027.34;5084479;28;20036;-52
2022/07/17 12:55:15;;;;;;;2.03;1.33;;;;;;;35.74;17.52;101019.06;5084956;28;20039;-57
2022/07/17 12:57:41;;;;;;;1.53;0.93;;;;;;;35.77;16.55;101021.19;5083811;28;20037;-57
2022/07/17 13:00:07;;;;;;;3.63;1.00;;;;;;;35.08;17.16;101019.84;5066363;28;20024;-55
2022/07/17 13:02:32;;;;;;;1.80;0.80;;;;;;;36.15;15.88;101026.94;5066754;28;20485;-57
2022/07/17 13:04:58;;;;;;;2.67;1.10;;;;;;;35.56;15.89;101024.56;5083051;28;20075;-57
2022/07/17 13:07:23;;;;;;;1.50;1.10;;;;;;;33.85;16.46;101006.59;5085208;28;20032;-58
2022/07/17 13:09:49;;;;;;;1.77;1.10;;;;;;;35.20;17.07;101013.69;5083219;28;20146;-56
2022/07/17 13:12:14;;;;;;;1.10;0.80;;;;;;;35.37;15.76;101017.66;5065658;28;20140;-53
2022/07/17 13:14:40;;;;;;;1.40;1.03;;;;;;;34.92;16.20;101010.31;5086519;28;20123;-58
2022/07/17 13:17:06;;;;;;;0.95;0.85;;;;;;;35.50;15.88;101006.47;5083481;28;20036;-55
2022/07/17 13:19:31;;;;;;;2.57;1.07;;;;;;;35.17;16.87;101008.81;5083174;28;20044;-59
2022/07/17 13:21:57;;;;;;;1.30;1.10;;;;;;;35.31;15.96;101012.25;5085002;28;20055;-57
2022/07/17 13:24:22;;;;;;;2.53;1.30;;;;;;;35.05;15.14;101006.63;5078808;28;20032;-57
2022/07/17 13:26:48;;;;;;;2.07;0.80;;;;;;;34.51;16.69;101003.09;5073300;28;20417;-56
2022/07/17 13:29:13;;;;;;;1.37;1.07;;;;;;;34.49;16.10;101001.75;5073687;28;20046;-57
2022/07/17 13:31:39;;;;;;;1.77;1.67;;;;;;;33.66;16.10;101001.19;5074135;28;20123;-58
2022/07/17 13:34:04;;;;;;;1.43;1.20;;;;;;;33.61;16.72;100995.78;5073917;28;20109;-55
2022/07/17 13:36:30;;;;;;;15.33;1.40;;;;;;;32.78;17.42;101000.44;5073974;28;20554;-58
2022/07/17 13:38:56;;;;;;;1.70;1.40;;;;;;;32.70;17.42;101001.13;5073628;28;20397;-60
2022/07/17 13:41:22;;;;;;;3.40;1.27;;;;;;;32.66;16.80;100998.97;5073970;28;20044;-55
2022/07/17 13:43:47;;;;;;;2.15;1.35;;;;;;;32.20;19.83;100990.63;5073968;28;20082;-54
2022/07/17 13:46:13;;;;;;;1.27;1.10;;;;;;;31.21;18.35;100974.06;5073821;28;20040;-54
2022/07/17 13:48:39;;;;;;;1.57;1.10;;;;;;;31.65;19.06;100981.25;5057065;28;20055;-58
2022/07/17 13:51:05;;;;;;;1.80;1.10;;;;;;;31.68;18.35;100986.16;5056060;28;20032;-55
2022/07/17 13:53:32;;;;;;;2.03;1.60;;;;;;;31.53;17.94;100973.41;5073170;28;20063;-58
2022/07/17 13:55:57;;;;;;;3.67;1.38;;;;;;;31.44;18.55;100981.53;5073760;28;20119;-58
2022/07/17 13:58:23;;;;;;;2.03;1.00;;;;;;;30.94;18.86;100978.22;5073638;28;20194;-57
2022/07/17 14:00:48;;;;;;;1.55;1.33;;;;;;;30.99;19.40;100975.44;5073325;28;20075;-57
2022/07/17 14:03:14;;;;;;;1.50;1.17;;;;;;;31.27;20.02;100978.44;5073335;28;20039;-58
2022/07/17 14:05:39;;;;;;;1.30;1.08;;;;;;;31.06;20.63;100973.16;5073618;28;20456;-53
2022/07/17 14:08:05;;;;;;;3.05;1.50;;;;;;;30.91;20.36;100973.31;5073651;28;20048;-54
2022/07/17 14:10:30;;;;;;;2.80;1.15;;;;;;;30.69;20.29;100976.56;5073549;28;20040;-57
2022/07/17 14:12:56;;;;;;;1.60;1.00;;;;;;;30.66;20.62;100970.81;5073282;28;20029;-58
2022/07/17 14:15:21;;;;;;;1.90;1.23;;;;;;;30.64;20.68;100970.25;5073405;28;20037;-57
2022/07/17 14:17:47;;;;;;;1.00;0.98;;;;;;;30.24;19.81;100970.34;5073252;28;20500;-60
2022/07/17 14:20:12;;;;;;;1.58;1.20;;;;;;;30.37;20.67;100968.03;5072971;28;20066;-60
2022/07/17 14:22:38;;;;;;;2.65;1.10;;;;;;;30.22;19.40;100966.25;5073207;28;20025;-60
2022/07/17 14:25:03;;;;;;;2.25;1.23;;;;;;;30.27;19.83;100961.53;5072998;28;20568;-60
2022/07/17 14:27:29;;;;;;;1.75;1.35;;;;;;;30.26;20.43;100964.56;5073212;28;20040;-60
2022/07/17 14:29:54;;;;;;;1.27;0.88;;;;;;;30.29;21.13;100966.72;5072901;28;20044;-60
2022/07/17 14:32:20;;;;;;;1.48;1.15;;;;;;;30.36;20.25;100958.16;5072861;28;20044;-59
2022/07/17 14:34:45;;;;;;;1.48;1.10;;;;;;;30.31;20.08;100949.94;5073420;28;20040;-60
2022/07/17 14:37:11;;;;;;;1.65;0.95;;;;;;;30.32;20.86;100955.19;5092180;28;20068;-59
2022/07/17 14:39:36;;;;;;;4.13;1.05;;;;;;;30.35;20.68;100949.09;5092645;28;20047;-57
2022/07/17 14:42:02;;;;;;;2.70;1.20;;;;;;;30.37;20.36;100946.88;5092860;28;20036;-60
2022/07/17 14:44:30;;;;;;;1.13;1.02;;;;;;;30.20;20.00;100951.97;5074704;28;20032;-60
2022/07/17 14:46:57;;;;;;;1.42;1.20;;;;;;;30.19;19.64;100944.81;5092837;28;20029;-58
2022/07/17 14:49:22;;;;;;;2.28;1.00;;;;;;;29.93;20.53;100947.75;5092544;28;20127;-60
2022/07/17 14:51:47;;;;;;;1.13;1.02;;;;;;;30.09;20.11;100947.63;5092803;28;20177;-60
2022/07/17 14:54:13;;;;;;;0.98;0.82;;;;;;;30.15;20.53;100941.03;5092629;28;20040;-60
2022/07/17 14:56:38;;;;;;;1.80;1.20;;;;;;;30.00;19.43;100939.19;5092767;28;20036;-61
2022/07/17 14:59:04;;;;;;;2.70;1.30;;;;;;;29.76;20.47;100933.59;5074222;28;20102;-60
2022/07/17 15:01:29;;;;;;;2.00;1.00;;;;;;;29.90;20.85;100936.50;5092629;28;20397;-59
2022/07/17 15:03:55;;;;;;;2.03;1.10;;;;;;;29.84;21.21;100930.25;5092409;28;20122;-60
2022/07/17 15:06:20;;;;;;;2.10;1.10;;;;;;;29.70;20.79;100924.56;5091714;28;20124;-59
2022/07/17 15:08:46;;;;;;;5.22;1.10;;;;;;;29.68;20.45;100926.78;5092097;28;20068;-60
2022/07/17 15:11:11;;;;;;;2.10;1.02;;;;;;;29.61;20.03;100925.47;5092466;28;20031;-60
2022/07/17 15:13:37;;;;;;;2.13;1.60;;;;;;;29.71;20.76;100926.19;5092284;28;20131;-59
2022/07/17 15:16:02;;;;;;;3.28;1.13;;;;;;;29.78;21.32;100917.66;5092512;28;20047;-59
2022/07/17 15:18:28;;;;;;;1.80;1.30;;;;;;;29.77;21.20;100923.44;5092549;28;20040;-57
2022/07/17 15:20:53;;;;;;;3.97;1.75;;;;;;;29.79;21.70;100926.69;5092665;28;20074;-57
2022/07/17 15:23:19;;;;;;;1.98;1.20;;;;;;;29.77;22.03;100928.91;5092413;28;20039;-58
2022/07/17 15:25:44;;;;;;;1.55;1.13;;;;;;;29.71;20.56;100919.91;5092021;28;20047;-53
2022/07/17 15:28:10;;;;;;;1.52;1.10;;;;;;;29.70;21.03;100926.50;5092149;28;20036;-51
2022/07/17 15:30:35;;;;;;;2.85;1.20;;;;;;;29.71;20.21;100925.38;5091754;28;20068;-53
2022/07/17 15:33:00;;;;;;;2.33;1.30;;;;;;;29.57;19.98;100925.19;5092158;28;20123;-55
2022/07/17 15:35:26;;;;;;;5.65;1.00;;;;;;;29.45;20.39;100916.44;5091879;28;20075;-55
2022/07/17 15:37:53;;;;;;;2.08;1.00;;;;;;;29.49;20.30;100923.03;5092003;28;20044;-56
2022/07/17 15:40:20;;;;;;;1.20;0.88;;;;;;;29.57;20.48;100924.38;5091653;28;20032;-57
2022/07/17 15:42:45;;;;;;;1.75;1.30;;;;;;;29.41;20.59;100924.44;5092066;28;20028;-53
2022/07/17 15:45:11;;;;;;;1.40;1.02;;;;;;;29.44;20.60;100912.06;5073672;28;20516;-54